sensor_id;sensor_type;location;lat;lon;timestamp;P1;durP1;ratioP1;P2;durP2;ratioP2
4766;SDS011;2397;53.576;9.746;2023-06-04T00:00:10;2.73;;;2.53;;
4766;SDS011;2397;53.576;9.746;2023-06-04T00:02:37;3.50;;;2.13;;
4766;SDS011;2397;53.576;9.746;2023-06-04T00:05:04;3.47;;;2.43;;
4766;SDS011;2397;53.576;9.746;2023-06-04T00:07:31;2.87;;;2.50;;
4766;SDS011;2397;53.576;9.746;2023-06-04T00:09:58;2.50;;;2.30;;
4766;SDS011;2397;53.576;9.746;2023-06-04T00:12:24;2.87;;;2.00;;
4766;SDS011;2397;53.576;9.746;2023-06-04T00:14:51;2.73;;;2.47;;
4766;SDS011;2397;53.576;9.746;2023-06-04T00:17:18;7.43;;;2.50;;
4766;SDS011;2397;53.576;9.746;2023-06-04T00:19:45;7.30;;;2.80;;
4766;SDS011;2397;53.576;9.746;2023-06-04T00:22:12;4.10;;;2.73;;
4766;SDS011;2397;53.576;9.746;2023-06-04T00:24:39;2.83;;;2.50;;
4766;SDS011;2397;53.576;9.746;2023-06-04T00:27:07;2.80;;;2.60;;
4766;SDS011;2397;53.576;9.746;2023-06-04T00:29:36;3.63;;;2.80;;
4766;SDS011;2397;53.576;9.746;2023-06-04T00:32:03;3.40;;;2.60;;
4766;SDS011;2397;53.576;9.746;2023-06-04T00:34:30;5.53;;;3.30;;
4766;SDS011;2397;53.576;9.746;2023-06-04T00:36:57;3.53;;;3.20;;
4766;SDS011;2397;53.576;9.746;2023-06-04T00:39:23;3.70;;;3.30;;
4766;SDS011;2397;53.576;9.746;2023-06-04T00:41:50;3.80;;;2.93;;
4766;SDS011;2397;53.576;9.746;2023-06-04T00:44:17;3.10;;;2.83;;
4766;SDS011;2397;53.576;9.746;2023-06-04T00:46:43;3.10;;;2.73;;
4766;SDS011;2397;53.576;9.746;2023-06-04T00:49:11;3.73;;;3.00;;
4766;SDS011;2397;53.576;9.746;2023-06-04T00:51:38;6.97;;;3.20;;
4766;SDS011;2397;53.576;9.746;2023-06-04T00:54:06;2.73;;;2.53;;
4766;SDS011;2397;53.576;9.746;2023-06-04T00:56:37;3.50;;;2.87;;
4766;SDS011;2397;53.576;9.746;2023-06-04T00:59:05;3.20;;;2.90;;
4766;SDS011;2397;53.576;9.746;2023-06-04T01:01:37;5.00;;;2.73;;
4766;SDS011;2397;53.576;9.746;2023-06-04T01:04:14;3.90;;;2.60;;
4766;SDS011;2397;53.576;9.746;2023-06-04T01:06:49;3.50;;;2.90;;
4766;SDS011;2397;53.576;9.746;2023-06-04T01:09:20;3.43;;;3.13;;
4766;SDS011;2397;53.576;9.746;2023-06-04T01:11:46;3.30;;;2.60;;
4766;SDS011;2397;53.576;9.746;2023-06-04T01:14:13;2.70;;;2.50;;
4766;SDS011;2397;53.576;9.746;2023-06-04T01:25:33;3.00;;;2.70;;
4766;SDS011;2397;53.576;9.746;2023-06-04T01:28:06;3.30;;;2.30;;
4766;SDS011;2397;53.576;9.746;2023-06-04T01:30:34;4.53;;;2.80;;
4766;SDS011;2397;53.576;9.746;2023-06-04T01:33:03;2.37;;;2.17;;
4766;SDS011;2397;53.576;9.746;2023-06-04T01:35:30;3.53;;;2.60;;
4766;SDS011;2397;53.576;9.746;2023-06-04T01:37:59;3.50;;;2.37;;
4766;SDS011;2397;53.576;9.746;2023-06-04T01:40:26;3.40;;;2.43;;
4766;SDS011;2397;53.576;9.746;2023-06-04T01:42:53;2.40;;;2.20;;
4766;SDS011;2397;53.576;9.746;2023-06-04T01:45:21;5.03;;;2.33;;
4766;SDS011;2397;53.576;9.746;2023-06-04T01:47:49;1.97;;;1.80;;
4766;SDS011;2397;53.576;9.746;2023-06-04T01:50:16;2.53;;;2.33;;
4766;SDS011;2397;53.576;9.746;2023-06-04T01:52:43;2.33;;;2.13;;
4766;SDS011;2397;53.576;9.746;2023-06-04T01:55:11;2.03;;;1.93;;
4766;SDS011;2397;53.576;9.746;2023-06-04T01:57:39;2.23;;;2.03;;
4766;SDS011;2397;53.576;9.746;2023-06-04T02:00:08;4.10;;;2.47;;
4766;SDS011;2397;53.576;9.746;2023-06-04T02:02:39;2.43;;;2.23;;
4766;SDS011;2397;53.576;9.746;2023-06-04T02:05:08;2.40;;;2.20;;
4766;SDS011;2397;53.576;9.746;2023-06-04T02:07:38;2.40;;;1.73;;
4766;SDS011;2397;53.576;9.746;2023-06-04T02:10:10;6.03;;;2.33;;
4766;SDS011;2397;53.576;9.746;2023-06-04T02:12:53;2.23;;;2.03;;
4766;SDS011;2397;53.576;9.746;2023-06-04T02:15:20;1.90;;;1.80;;
4766;SDS011;2397;53.576;9.746;2023-06-04T02:17:48;2.10;;;1.90;;
4766;SDS011;2397;53.576;9.746;2023-06-04T02:20:16;2.40;;;2.20;;
4766;SDS011;2397;53.576;9.746;2023-06-04T02:22:43;2.60;;;2.40;;
4766;SDS011;2397;53.576;9.746;2023-06-04T02:25:10;3.00;;;2.40;;
4766;SDS011;2397;53.576;9.746;2023-06-04T02:27:37;2.50;;;2.30;;
4766;SDS011;2397;53.576;9.746;2023-06-04T02:30:03;8.90;;;2.53;;
4766;SDS011;2397;53.576;9.746;2023-06-04T02:32:32;2.67;;;2.30;;
4766;SDS011;2397;53.576;9.746;2023-06-04T02:35:00;3.70;;;2.97;;
4766;SDS011;2397;53.576;9.746;2023-06-04T02:37:26;3.27;;;2.87;;
4766;SDS011;2397;53.576;9.746;2023-06-04T02:39:53;2.70;;;2.50;;
4766;SDS011;2397;53.576;9.746;2023-06-04T02:42:20;3.40;;;2.73;;
4766;SDS011;2397;53.576;9.746;2023-06-04T02:44:47;2.80;;;2.60;;
4766;SDS011;2397;53.576;9.746;2023-06-04T02:47:13;2.87;;;2.67;;
4766;SDS011;2397;53.576;9.746;2023-06-04T02:49:40;3.50;;;2.50;;
4766;SDS011;2397;53.576;9.746;2023-06-04T02:52:07;3.20;;;2.60;;
4766;SDS011;2397;53.576;9.746;2023-06-04T02:54:33;4.10;;;2.80;;
4766;SDS011;2397;53.576;9.746;2023-06-04T02:57:00;3.17;;;2.87;;
4766;SDS011;2397;53.576;9.746;2023-06-04T02:59:26;3.20;;;2.90;;
4766;SDS011;2397;53.576;9.746;2023-06-04T03:01:53;4.50;;;2.80;;
4766;SDS011;2397;53.576;9.746;2023-06-04T03:04:20;4.67;;;2.63;;
4766;SDS011;2397;53.576;9.746;2023-06-04T03:06:47;3.30;;;2.40;;
4766;SDS011;2397;53.576;9.746;2023-06-04T03:09:14;5.10;;;2.53;;
4766;SDS011;2397;53.576;9.746;2023-06-04T03:11:40;2.50;;;2.30;;
4766;SDS011;2397;53.576;9.746;2023-06-04T03:14:07;2.90;;;2.40;;
4766;SDS011;2397;53.576;9.746;2023-06-04T03:16:35;3.00;;;2.40;;
4766;SDS011;2397;53.576;9.746;2023-06-04T03:19:06;2.70;;;2.30;;
4766;SDS011;2397;53.576;9.746;2023-06-04T03:21:32;2.83;;;2.63;;
4766;SDS011;2397;53.576;9.746;2023-06-04T03:23:59;2.20;;;2.10;;
4766;SDS011;2397;53.576;9.746;2023-06-04T03:26:26;2.80;;;2.60;;
4766;SDS011;2397;53.576;9.746;2023-06-04T03:28:54;4.07;;;2.13;;
4766;SDS011;2397;53.576;9.746;2023-06-04T03:31:21;3.40;;;2.73;;
4766;SDS011;2397;53.576;9.746;2023-06-04T03:33:48;2.73;;;2.20;;
4766;SDS011;2397;53.576;9.746;2023-06-04T03:36:15;5.00;;;2.57;;
4766;SDS011;2397;53.576;9.746;2023-06-04T03:38:44;2.17;;;2.00;;
4766;SDS011;2397;53.576;9.746;2023-06-04T03:41:12;3.73;;;2.47;;
4766;SDS011;2397;53.576;9.746;2023-06-04T03:43:39;2.60;;;2.33;;
4766;SDS011;2397;53.576;9.746;2023-06-04T03:46:07;2.93;;;2.30;;
4766;SDS011;2397;53.576;9.746;2023-06-04T03:48:35;2.50;;;2.30;;
4766;SDS011;2397;53.576;9.746;2023-06-04T03:51:02;2.53;;;2.33;;
4766;SDS011;2397;53.576;9.746;2023-06-04T03:53:29;2.70;;;2.13;;
4766;SDS011;2397;53.576;9.746;2023-06-04T03:55:55;1.70;;;1.60;;
4766;SDS011;2397;53.576;9.746;2023-06-04T03:58:22;2.70;;;2.50;;
4766;SDS011;2397;53.576;9.746;2023-06-04T04:00:50;2.57;;;2.30;;
4766;SDS011;2397;53.576;9.746;2023-06-04T04:03:18;2.67;;;2.47;;
4766;SDS011;2397;53.576;9.746;2023-06-04T04:05:45;2.80;;;2.60;;
4766;SDS011;2397;53.576;9.746;2023-06-04T04:08:12;2.77;;;2.10;;
4766;SDS011;2397;53.576;9.746;2023-06-04T04:10:43;3.27;;;2.40;;
4766;SDS011;2397;53.576;9.746;2023-06-04T04:13:10;3.70;;;2.70;;
4766;SDS011;2397;53.576;9.746;2023-06-04T04:15:38;2.87;;;2.63;;
4766;SDS011;2397;53.576;9.746;2023-06-04T04:18:05;3.30;;;2.47;;
4766;SDS011;2397;53.576;9.746;2023-06-04T04:20:34;2.63;;;2.43;;
4766;SDS011;2397;53.576;9.746;2023-06-04T04:23:05;4.73;;;2.40;;
4766;SDS011;2397;53.576;9.746;2023-06-04T04:25:34;2.40;;;2.20;;
4766;SDS011;2397;53.576;9.746;2023-06-04T04:28:03;2.50;;;2.30;;
4766;SDS011;2397;53.576;9.746;2023-06-04T04:30:34;2.60;;;2.40;;
4766;SDS011;2397;53.576;9.746;2023-06-04T04:33:02;2.40;;;2.20;;
4766;SDS011;2397;53.576;9.746;2023-06-04T04:35:36;3.60;;;2.57;;
4766;SDS011;2397;53.576;9.746;2023-06-04T04:38:04;2.57;;;2.37;;
4766;SDS011;2397;53.576;9.746;2023-06-04T04:40:36;3.20;;;2.43;;
4766;SDS011;2397;53.576;9.746;2023-06-04T04:43:05;4.23;;;2.60;;
4766;SDS011;2397;53.576;9.746;2023-06-04T04:45:32;6.03;;;2.50;;
4766;SDS011;2397;53.576;9.746;2023-06-04T04:48:00;7.00;;;3.00;;
4766;SDS011;2397;53.576;9.746;2023-06-04T04:50:28;2.70;;;2.50;;
4766;SDS011;2397;53.576;9.746;2023-06-04T04:52:54;9.77;;;2.90;;
4766;SDS011;2397;53.576;9.746;2023-06-04T04:55:22;7.40;;;3.57;;
4766;SDS011;2397;53.576;9.746;2023-06-04T04:57:50;5.03;;;3.10;;
4766;SDS011;2397;53.576;9.746;2023-06-04T05:00:18;3.23;;;2.37;;
4766;SDS011;2397;53.576;9.746;2023-06-04T05:02:49;8.67;;;2.70;;
4766;SDS011;2397;53.576;9.746;2023-06-04T05:05:16;5.30;;;2.70;;
4766;SDS011;2397;53.576;9.746;2023-06-04T05:07:45;8.80;;;3.10;;
4766;SDS011;2397;53.576;9.746;2023-06-04T05:10:12;5.37;;;3.00;;
4766;SDS011;2397;53.576;9.746;2023-06-04T05:12:50;5.97;;;3.23;;
4766;SDS011;2397;53.576;9.746;2023-06-04T05:15:31;11.33;;;3.50;;
4766;SDS011;2397;53.576;9.746;2023-06-04T05:17:58;6.90;;;3.10;;
4766;SDS011;2397;53.576;9.746;2023-06-04T05:20:30;4.70;;;3.07;;
4766;SDS011;2397;53.576;9.746;2023-06-04T05:22:57;3.90;;;3.17;;
4766;SDS011;2397;53.576;9.746;2023-06-04T05:25:23;5.33;;;2.80;;
4766;SDS011;2397;53.576;9.746;2023-06-04T05:27:50;5.30;;;2.50;;
4766;SDS011;2397;53.576;9.746;2023-06-04T05:30:19;4.33;;;2.40;;
4766;SDS011;2397;53.576;9.746;2023-06-04T05:32:46;3.00;;;2.70;;
4766;SDS011;2397;53.576;9.746;2023-06-04T05:35:14;4.57;;;2.90;;
4766;SDS011;2397;53.576;9.746;2023-06-04T05:37:42;8.53;;;3.47;;
4766;SDS011;2397;53.576;9.746;2023-06-04T05:40:14;8.97;;;2.97;;
4766;SDS011;2397;53.576;9.746;2023-06-04T05:42:42;3.57;;;3.00;;
4766;SDS011;2397;53.576;9.746;2023-06-04T05:45:09;3.27;;;2.70;;
4766;SDS011;2397;53.576;9.746;2023-06-04T05:47:38;4.20;;;3.23;;
4766;SDS011;2397;53.576;9.746;2023-06-04T05:50:05;8.60;;;3.03;;
4766;SDS011;2397;53.576;9.746;2023-06-04T05:52:33;3.67;;;2.40;;
4766;SDS011;2397;53.576;9.746;2023-06-04T05:55:01;4.50;;;2.73;;
4766;SDS011;2397;53.576;9.746;2023-06-04T05:57:27;5.07;;;2.70;;
4766;SDS011;2397;53.576;9.746;2023-06-04T05:59:55;6.80;;;3.17;;
4766;SDS011;2397;53.576;9.746;2023-06-04T06:02:22;4.13;;;2.70;;
4766;SDS011;2397;53.576;9.746;2023-06-04T06:04:49;5.00;;;3.33;;
4766;SDS011;2397;53.576;9.746;2023-06-04T06:07:15;7.73;;;2.73;;
4766;SDS011;2397;53.576;9.746;2023-06-04T06:09:42;4.03;;;2.23;;
4766;SDS011;2397;53.576;9.746;2023-06-04T06:12:09;6.60;;;3.13;;
4766;SDS011;2397;53.576;9.746;2023-06-04T06:14:37;4.93;;;2.63;;
4766;SDS011;2397;53.576;9.746;2023-06-04T06:17:04;4.23;;;2.80;;
4766;SDS011;2397;53.576;9.746;2023-06-04T06:19:30;5.30;;;2.83;;
4766;SDS011;2397;53.576;9.746;2023-06-04T06:21:57;3.60;;;3.00;;
4766;SDS011;2397;53.576;9.746;2023-06-04T06:24:26;5.50;;;2.40;;
4766;SDS011;2397;53.576;9.746;2023-06-04T06:26:53;8.40;;;2.87;;
4766;SDS011;2397;53.576;9.746;2023-06-04T06:29:19;6.00;;;2.90;;
4766;SDS011;2397;53.576;9.746;2023-06-04T06:31:48;6.17;;;2.90;;
4766;SDS011;2397;53.576;9.746;2023-06-04T06:34:15;10.20;;;2.80;;
4766;SDS011;2397;53.576;9.746;2023-06-04T06:36:41;3.50;;;2.40;;
4766;SDS011;2397;53.576;9.746;2023-06-04T06:39:08;5.87;;;2.80;;
4766;SDS011;2397;53.576;9.746;2023-06-04T06:41:36;7.67;;;2.50;;
4766;SDS011;2397;53.576;9.746;2023-06-04T06:44:08;4.83;;;2.27;;
4766;SDS011;2397;53.576;9.746;2023-06-04T06:46:34;4.20;;;2.43;;
4766;SDS011;2397;53.576;9.746;2023-06-04T06:49:01;4.20;;;2.73;;
4766;SDS011;2397;53.576;9.746;2023-06-04T06:51:27;3.00;;;2.40;;
4766;SDS011;2397;53.576;9.746;2023-06-04T06:53:54;3.17;;;1.73;;
4766;SDS011;2397;53.576;9.746;2023-06-04T06:56:21;5.00;;;2.20;;
4766;SDS011;2397;53.576;9.746;2023-06-04T06:58:48;3.20;;;2.40;;
4766;SDS011;2397;53.576;9.746;2023-06-04T07:01:14;5.17;;;2.17;;
4766;SDS011;2397;53.576;9.746;2023-06-04T07:03:41;2.53;;;2.30;;
4766;SDS011;2397;53.576;9.746;2023-06-04T07:06:08;2.70;;;2.50;;
4766;SDS011;2397;53.576;9.746;2023-06-04T07:08:35;7.10;;;2.43;;
4766;SDS011;2397;53.576;9.746;2023-06-04T07:11:02;4.07;;;2.10;;
4766;SDS011;2397;53.576;9.746;2023-06-04T07:13:29;8.07;;;2.10;;
4766;SDS011;2397;53.576;9.746;2023-06-04T07:15:58;4.60;;;2.27;;
4766;SDS011;2397;53.576;9.746;2023-06-04T07:18:25;7.63;;;2.10;;
4766;SDS011;2397;53.576;9.746;2023-06-04T07:20:52;4.50;;;2.20;;
4766;SDS011;2397;53.576;9.746;2023-06-04T07:23:22;5.90;;;2.27;;
4766;SDS011;2397;53.576;9.746;2023-06-04T07:25:49;3.77;;;2.20;;
4766;SDS011;2397;53.576;9.746;2023-06-04T07:28:16;3.67;;;2.50;;
4766;SDS011;2397;53.576;9.746;2023-06-04T07:30:44;5.43;;;2.20;;
4766;SDS011;2397;53.576;9.746;2023-06-04T07:33:12;3.67;;;2.00;;
4766;SDS011;2397;53.576;9.746;2023-06-04T07:35:38;6.37;;;2.30;;
4766;SDS011;2397;53.576;9.746;2023-06-04T07:38:05;6.77;;;2.60;;
4766;SDS011;2397;53.576;9.746;2023-06-04T07:40:32;2.63;;;2.23;;
4766;SDS011;2397;53.576;9.746;2023-06-04T07:42:58;4.10;;;1.90;;
4766;SDS011;2397;53.576;9.746;2023-06-04T07:45:25;2.87;;;2.10;;
4766;SDS011;2397;53.576;9.746;2023-06-04T07:47:54;3.60;;;2.10;;
4766;SDS011;2397;53.576;9.746;2023-06-04T07:50:22;3.93;;;2.10;;
4766;SDS011;2397;53.576;9.746;2023-06-04T07:52:48;6.53;;;2.13;;
4766;SDS011;2397;53.576;9.746;2023-06-04T07:55:15;6.40;;;2.33;;
4766;SDS011;2397;53.576;9.746;2023-06-04T07:57:41;4.70;;;2.10;;
4766;SDS011;2397;53.576;9.746;2023-06-04T08:00:08;2.07;;;1.87;;
4766;SDS011;2397;53.576;9.746;2023-06-04T08:02:38;8.17;;;4.73;;
4766;SDS011;2397;53.576;9.746;2023-06-04T08:05:05;3.20;;;1.80;;
4766;SDS011;2397;53.576;9.746;2023-06-04T08:07:32;4.43;;;2.20;;
4766;SDS011;2397;53.576;9.746;2023-06-04T08:09:59;2.90;;;1.90;;
4766;SDS011;2397;53.576;9.746;2023-06-04T08:12:25;2.60;;;1.80;;
4766;SDS011;2397;53.576;9.746;2023-06-04T08:14:52;1.93;;;1.83;;
4766;SDS011;2397;53.576;9.746;2023-06-04T08:17:23;3.07;;;2.00;;
4766;SDS011;2397;53.576;9.746;2023-06-04T08:19:50;3.20;;;1.63;;
4766;SDS011;2397;53.576;9.746;2023-06-04T08:22:16;2.27;;;1.80;;
4766;SDS011;2397;53.576;9.746;2023-06-04T08:24:43;3.10;;;1.83;;
4766;SDS011;2397;53.576;9.746;2023-06-04T08:27:09;4.13;;;1.83;;
4766;SDS011;2397;53.576;9.746;2023-06-04T08:29:36;1.80;;;1.70;;
4766;SDS011;2397;53.576;9.746;2023-06-04T08:32:03;2.13;;;1.73;;
4766;SDS011;2397;53.576;9.746;2023-06-04T08:34:30;1.70;;;1.60;;
4766;SDS011;2397;53.576;9.746;2023-06-04T08:36:57;2.70;;;1.80;;
4766;SDS011;2397;53.576;9.746;2023-06-04T08:39:23;1.73;;;1.47;;
4766;SDS011;2397;53.576;9.746;2023-06-04T08:41:51;2.30;;;1.83;;
4766;SDS011;2397;53.576;9.746;2023-06-04T08:44:20;2.10;;;1.90;;
4766;SDS011;2397;53.576;9.746;2023-06-04T08:46:50;2.63;;;1.90;;
4766;SDS011;2397;53.576;9.746;2023-06-04T08:49:19;2.03;;;1.73;;
4766;SDS011;2397;53.576;9.746;2023-06-04T08:51:48;3.50;;;2.30;;
4766;SDS011;2397;53.576;9.746;2023-06-04T08:54:15;2.07;;;1.87;;
4766;SDS011;2397;53.576;9.746;2023-06-04T08:56:42;3.93;;;1.83;;
4766;SDS011;2397;53.576;9.746;2023-06-04T08:59:10;1.93;;;1.57;;
4766;SDS011;2397;53.576;9.746;2023-06-04T09:01:37;2.80;;;1.83;;
4766;SDS011;2397;53.576;9.746;2023-06-04T09:04:05;3.50;;;2.13;;
4766;SDS011;2397;53.576;9.746;2023-06-04T09:06:38;7.17;;;1.93;;
4766;SDS011;2397;53.576;9.746;2023-06-04T09:09:05;3.63;;;2.23;;
4766;SDS011;2397;53.576;9.746;2023-06-04T09:11:41;4.90;;;2.20;;
4766;SDS011;2397;53.576;9.746;2023-06-04T09:14:11;3.13;;;2.60;;
4766;SDS011;2397;53.576;9.746;2023-06-04T09:16:46;3.67;;;2.10;;
4766;SDS011;2397;53.576;9.746;2023-06-04T09:19:14;3.00;;;2.30;;
4766;SDS011;2397;53.576;9.746;2023-06-04T09:21:45;4.30;;;2.20;;
4766;SDS011;2397;53.576;9.746;2023-06-04T09:24:15;2.20;;;2.00;;
4766;SDS011;2397;53.576;9.746;2023-06-04T09:26:41;2.40;;;2.20;;
4766;SDS011;2397;53.576;9.746;2023-06-04T09:29:08;2.20;;;2.10;;
4766;SDS011;2397;53.576;9.746;2023-06-04T09:31:35;2.57;;;2.17;;
4766;SDS011;2397;53.576;9.746;2023-06-04T09:34:03;2.90;;;2.13;;
4766;SDS011;2397;53.576;9.746;2023-06-04T09:36:30;3.00;;;2.13;;
4766;SDS011;2397;53.576;9.746;2023-06-04T09:38:57;4.30;;;2.00;;
4766;SDS011;2397;53.576;9.746;2023-06-04T09:41:24;3.37;;;1.90;;
4766;SDS011;2397;53.576;9.746;2023-06-04T09:43:59;2.93;;;2.03;;
4766;SDS011;2397;53.576;9.746;2023-06-04T09:46:29;2.30;;;2.00;;
4766;SDS011;2397;53.576;9.746;2023-06-04T09:49:00;5.17;;;1.80;;
4766;SDS011;2397;53.576;9.746;2023-06-04T09:51:28;2.63;;;1.90;;
4766;SDS011;2397;53.576;9.746;2023-06-04T09:54:01;2.80;;;1.80;;
4766;SDS011;2397;53.576;9.746;2023-06-04T09:56:29;2.63;;;1.97;;
4766;SDS011;2397;53.576;9.746;2023-06-04T09:59:04;1.77;;;1.57;;
4766;SDS011;2397;53.576;9.746;2023-06-04T10:01:31;2.40;;;1.70;;
4766;SDS011;2397;53.576;9.746;2023-06-04T10:04:02;1.83;;;1.70;;
4766;SDS011;2397;53.576;9.746;2023-06-04T10:06:33;4.53;;;2.10;;
4766;SDS011;2397;53.576;9.746;2023-06-04T10:09:04;2.23;;;1.77;;
4766;SDS011;2397;53.576;9.746;2023-06-04T10:11:37;2.30;;;2.00;;
4766;SDS011;2397;53.576;9.746;2023-06-04T10:14:09;2.40;;;1.80;;
4766;SDS011;2397;53.576;9.746;2023-06-04T10:16:40;1.90;;;1.50;;
4766;SDS011;2397;53.576;9.746;2023-06-04T10:19:07;4.20;;;1.80;;
4766;SDS011;2397;53.576;9.746;2023-06-04T10:21:35;2.80;;;1.60;;
4766;SDS011;2397;53.576;9.746;2023-06-04T10:24:02;2.93;;;2.10;;
4766;SDS011;2397;53.576;9.746;2023-06-04T10:26:30;3.13;;;1.80;;
4766;SDS011;2397;53.576;9.746;2023-06-04T10:29:00;4.00;;;1.80;;
4766;SDS011;2397;53.576;9.746;2023-06-04T10:31:27;2.57;;;2.37;;
4766;SDS011;2397;53.576;9.746;2023-06-04T10:33:56;3.30;;;1.80;;
4766;SDS011;2397;53.576;9.746;2023-06-04T10:36:23;2.13;;;1.53;;
4766;SDS011;2397;53.576;9.746;2023-06-04T10:41:22;3.00;;;2.13;;
4766;SDS011;2397;53.576;9.746;2023-06-04T10:43:50;5.00;;;1.90;;
4766;SDS011;2397;53.576;9.746;2023-06-04T10:46:18;2.40;;;1.60;;
4766;SDS011;2397;53.576;9.746;2023-06-04T10:48:53;2.17;;;2.00;;
4766;SDS011;2397;53.576;9.746;2023-06-04T10:51:30;3.00;;;1.80;;
4766;SDS011;2397;53.576;9.746;2023-06-04T10:53:58;2.73;;;2.00;;
4766;SDS011;2397;53.576;9.746;2023-06-04T10:56:32;2.90;;;2.07;;
4766;SDS011;2397;53.576;9.746;2023-06-04T10:59:00;4.73;;;1.80;;
4766;SDS011;2397;53.576;9.746;2023-06-04T11:01:38;2.57;;;1.63;;
4766;SDS011;2397;53.576;9.746;2023-06-04T11:04:05;2.53;;;1.67;;
4766;SDS011;2397;53.576;9.746;2023-06-04T11:06:32;5.67;;;1.73;;
4766;SDS011;2397;53.576;9.746;2023-06-04T11:09:02;2.60;;;2.40;;
4766;SDS011;2397;53.576;9.746;2023-06-04T11:11:30;2.20;;;2.00;;
4766;SDS011;2397;53.576;9.746;2023-06-04T11:14:07;4.90;;;2.17;;
4766;SDS011;2397;53.576;9.746;2023-06-04T11:16:35;5.20;;;2.17;;
4766;SDS011;2397;53.576;9.746;2023-06-04T11:19:02;1.80;;;1.70;;
4766;SDS011;2397;53.576;9.746;2023-06-04T11:21:29;1.90;;;1.80;;
4766;SDS011;2397;53.576;9.746;2023-06-04T11:24:00;1.80;;;1.70;;
4766;SDS011;2397;53.576;9.746;2023-06-04T11:28:58;2.47;;;1.93;;
4766;SDS011;2397;53.576;9.746;2023-06-04T11:31:25;2.93;;;2.03;;
4766;SDS011;2397;53.576;9.746;2023-06-04T11:33:53;8.37;;;2.23;;
4766;SDS011;2397;53.576;9.746;2023-06-04T11:39:03;1.90;;;1.80;;
4766;SDS011;2397;53.576;9.746;2023-06-04T11:41:33;2.67;;;1.90;;
4766;SDS011;2397;53.576;9.746;2023-06-04T11:44:05;1.80;;;1.70;;
4766;SDS011;2397;53.576;9.746;2023-06-04T11:46:39;2.87;;;1.90;;
4766;SDS011;2397;53.576;9.746;2023-06-04T11:49:06;3.50;;;1.70;;
4766;SDS011;2397;53.576;9.746;2023-06-04T11:51:33;2.13;;;1.60;;
4766;SDS011;2397;53.576;9.746;2023-06-04T11:54:01;2.43;;;1.50;;
4766;SDS011;2397;53.576;9.746;2023-06-04T11:56:28;2.27;;;1.80;;
4766;SDS011;2397;53.576;9.746;2023-06-04T11:58:55;1.83;;;1.50;;
4766;SDS011;2397;53.576;9.746;2023-06-04T12:01:22;1.30;;;1.20;;
4766;SDS011;2397;53.576;9.746;2023-06-04T12:03:49;2.70;;;1.67;;
4766;SDS011;2397;53.576;9.746;2023-06-04T12:06:19;1.53;;;1.43;;
4766;SDS011;2397;53.576;9.746;2023-06-04T12:11:28;2.20;;;1.40;;
4766;SDS011;2397;53.576;9.746;2023-06-04T12:14:14;3.10;;;1.70;;
4766;SDS011;2397;53.576;9.746;2023-06-04T12:16:43;2.60;;;1.57;;
4766;SDS011;2397;53.576;9.746;2023-06-04T12:19:11;2.83;;;1.40;;
4766;SDS011;2397;53.576;9.746;2023-06-04T12:21:39;1.60;;;1.47;;
4766;SDS011;2397;53.576;9.746;2023-06-04T12:24:06;1.83;;;1.60;;
4766;SDS011;2397;53.576;9.746;2023-06-04T12:26:34;1.50;;;1.30;;
4766;SDS011;2397;53.576;9.746;2023-06-04T12:29:11;2.07;;;1.77;;
4766;SDS011;2397;53.576;9.746;2023-06-04T12:31:40;1.87;;;1.77;;
4766;SDS011;2397;53.576;9.746;2023-06-04T12:34:08;1.60;;;1.50;;
4766;SDS011;2397;53.576;9.746;2023-06-04T12:36:34;2.30;;;1.70;;
4766;SDS011;2397;53.576;9.746;2023-06-04T12:39:02;2.00;;;1.40;;
4766;SDS011;2397;53.576;9.746;2023-06-04T12:41:29;1.70;;;1.60;;
4766;SDS011;2397;53.576;9.746;2023-06-04T12:43:56;1.77;;;1.33;;
4766;SDS011;2397;53.576;9.746;2023-06-04T12:46:23;3.57;;;2.00;;
4766;SDS011;2397;53.576;9.746;2023-06-04T12:48:50;3.20;;;1.57;;
4766;SDS011;2397;53.576;9.746;2023-06-04T12:51:18;1.50;;;1.40;;
4766;SDS011;2397;53.576;9.746;2023-06-04T12:53:47;2.03;;;1.67;;
4766;SDS011;2397;53.576;9.746;2023-06-04T12:56:14;2.53;;;1.53;;
4766;SDS011;2397;53.576;9.746;2023-06-04T12:58:40;1.90;;;1.40;;
4766;SDS011;2397;53.576;9.746;2023-06-04T13:01:07;1.67;;;1.50;;
4766;SDS011;2397;53.576;9.746;2023-06-04T13:03:36;1.43;;;1.33;;
4766;SDS011;2397;53.576;9.746;2023-06-04T13:06:04;4.03;;;1.60;;
4766;SDS011;2397;53.576;9.746;2023-06-04T13:08:32;1.70;;;1.60;;
4766;SDS011;2397;53.576;9.746;2023-06-04T13:10:59;1.60;;;1.50;;
4766;SDS011;2397;53.576;9.746;2023-06-04T13:13:26;1.70;;;1.60;;
4766;SDS011;2397;53.576;9.746;2023-06-04T13:15:53;2.27;;;1.60;;
4766;SDS011;2397;53.576;9.746;2023-06-04T13:18:20;2.20;;;1.40;;
4766;SDS011;2397;53.576;9.746;2023-06-04T13:20:47;4.70;;;1.67;;
4766;SDS011;2397;53.576;9.746;2023-06-04T13:23:15;1.73;;;1.63;;
4766;SDS011;2397;53.576;9.746;2023-06-04T13:25:42;1.73;;;1.63;;
4766;SDS011;2397;53.576;9.746;2023-06-04T13:28:08;1.83;;;1.40;;
4766;SDS011;2397;53.576;9.746;2023-06-04T13:30:35;2.67;;;1.57;;
4766;SDS011;2397;53.576;9.746;2023-06-04T13:33:06;2.00;;;1.80;;
4766;SDS011;2397;53.576;9.746;2023-06-04T13:35:33;4.40;;;1.70;;
4766;SDS011;2397;53.576;9.746;2023-06-04T13:38:00;2.47;;;2.27;;
4766;SDS011;2397;53.576;9.746;2023-06-04T13:40:28;2.20;;;1.73;;
4766;SDS011;2397;53.576;9.746;2023-06-04T13:42:55;1.80;;;1.70;;
4766;SDS011;2397;53.576;9.746;2023-06-04T13:45:21;3.50;;;2.20;;
4766;SDS011;2397;53.576;9.746;2023-06-04T13:47:48;2.73;;;2.07;;
4766;SDS011;2397;53.576;9.746;2023-06-04T13:50:15;2.17;;;1.70;;
4766;SDS011;2397;53.576;9.746;2023-06-04T13:52:42;2.13;;;1.90;;
4766;SDS011;2397;53.576;9.746;2023-06-04T13:55:09;2.23;;;2.03;;
4766;SDS011;2397;53.576;9.746;2023-06-04T13:57:35;2.73;;;2.03;;
4766;SDS011;2397;53.576;9.746;2023-06-04T14:00:02;2.37;;;1.90;;
4766;SDS011;2397;53.576;9.746;2023-06-04T14:02:29;1.73;;;1.63;;
4766;SDS011;2397;53.576;9.746;2023-06-04T14:04:56;3.10;;;2.10;;
4766;SDS011;2397;53.576;9.746;2023-06-04T14:07:22;1.90;;;1.80;;
4766;SDS011;2397;53.576;9.746;2023-06-04T14:09:49;2.03;;;1.93;;
4766;SDS011;2397;53.576;9.746;2023-06-04T14:12:21;2.13;;;1.80;;
4766;SDS011;2397;53.576;9.746;2023-06-04T14:14:49;4.60;;;1.73;;
4766;SDS011;2397;53.576;9.746;2023-06-04T14:17:16;1.90;;;1.80;;
4766;SDS011;2397;53.576;9.746;2023-06-04T14:19:43;2.20;;;2.10;;
4766;SDS011;2397;53.576;9.746;2023-06-04T14:22:10;2.00;;;1.90;;
4766;SDS011;2397;53.576;9.746;2023-06-04T14:24:39;2.43;;;2.07;;
4766;SDS011;2397;53.576;9.746;2023-06-04T14:27:06;2.63;;;2.00;;
4766;SDS011;2397;53.576;9.746;2023-06-04T14:29:34;2.77;;;1.90;;
4766;SDS011;2397;53.576;9.746;2023-06-04T14:32:06;2.47;;;1.80;;
4766;SDS011;2397;53.576;9.746;2023-06-04T14:34:33;3.00;;;2.23;;
4766;SDS011;2397;53.576;9.746;2023-06-04T14:36:59;3.47;;;2.00;;
4766;SDS011;2397;53.576;9.746;2023-06-04T14:39:27;2.97;;;2.07;;
4766;SDS011;2397;53.576;9.746;2023-06-04T14:41:53;1.70;;;1.60;;
4766;SDS011;2397;53.576;9.746;2023-06-04T14:44:20;3.10;;;1.77;;
4766;SDS011;2397;53.576;9.746;2023-06-04T14:46:48;2.43;;;1.90;;
4766;SDS011;2397;53.576;9.746;2023-06-04T14:49:16;8.30;;;1.80;;
4766;SDS011;2397;53.576;9.746;2023-06-04T14:51:42;4.90;;;2.00;;
4766;SDS011;2397;53.576;9.746;2023-06-04T14:54:09;1.70;;;1.60;;
4766;SDS011;2397;53.576;9.746;2023-06-04T14:56:36;2.20;;;1.70;;
4766;SDS011;2397;53.576;9.746;2023-06-04T14:59:02;3.43;;;2.07;;
4766;SDS011;2397;53.576;9.746;2023-06-04T15:01:35;4.77;;;2.00;;
4766;SDS011;2397;53.576;9.746;2023-06-04T15:04:03;1.93;;;1.70;;
4766;SDS011;2397;53.576;9.746;2023-06-04T15:06:30;5.13;;;1.87;;
4766;SDS011;2397;53.576;9.746;2023-06-04T15:08:57;4.00;;;2.60;;
4766;SDS011;2397;53.576;9.746;2023-06-04T15:11:24;2.93;;;1.90;;
4766;SDS011;2397;53.576;9.746;2023-06-04T15:13:52;3.80;;;2.03;;
4766;SDS011;2397;53.576;9.746;2023-06-04T15:16:20;2.63;;;1.97;;
4766;SDS011;2397;53.576;9.746;2023-06-04T15:18:47;5.77;;;1.80;;
4766;SDS011;2397;53.576;9.746;2023-06-04T15:21:15;2.77;;;1.80;;
4766;SDS011;2397;53.576;9.746;2023-06-04T15:23:41;2.40;;;2.00;;
4766;SDS011;2397;53.576;9.746;2023-06-04T15:26:10;1.70;;;1.60;;
4766;SDS011;2397;53.576;9.746;2023-06-04T15:28:37;1.93;;;1.67;;
4766;SDS011;2397;53.576;9.746;2023-06-04T15:31:04;1.70;;;1.60;;
4766;SDS011;2397;53.576;9.746;2023-06-04T15:33:32;2.33;;;2.13;;
4766;SDS011;2397;53.576;9.746;2023-06-04T15:35:58;3.47;;;2.10;;
4766;SDS011;2397;53.576;9.746;2023-06-04T15:38:25;4.23;;;2.20;;